Flight Track Log - Related Links

Times and Time Zones

All times are in EDT time to prevent confusion due to time zone crossing. See the VH-VQB flight status page for this flight to view local times or setup timezone preferences in your user account.

Time Position Orientation Groundspeed Altitude Reporting Facility
EDT Latitude Longitude Course Direction KTS MPH feet Rate Location/Type
Thu 10:53:51 PM -33.9380 151.1900 213° Southwest 4 5  Level FlightAware ADS-B
Thu 10:54:41 PM -33.9380 151.1890 270° West 581 Level FlightAware ADS-B
Thu 10:55:31 PM -33.9380 151.1880 270° West 55 63 857 Level FlightAware ADS-B
Thu 10:55:56 PM -33.9420 151.1710 254° West 159 183 1,636 Level FlightAware ADS-B
Thu 10:56:26 PM -33.9480 151.1460 254° West 146 168 1,500 2,618 Climbing FlightAware ADS-B
Thu 10:56:51 PM -33.9540 151.1260 259° West 152 175 2,400 1,680 Climbing FlightAware ADS-B
Thu 10:57:16 PM -33.9600 151.1050 251° West 176 203 2,900 1,309 Climbing FlightAware ADS-B
Thu 10:57:46 PM -33.9680 151.0720 254° West 224 258 3,600 1,500 Climbing FlightAware ADS-B
Thu 10:58:16 PM -33.9800 151.0330 250° West 267 307 4,400 1,467 Climbing FlightAware ADS-B
Thu 10:58:31 PM -33.9860 151.0110 252° West 289 333 4,700 857 Climbing FlightAware ADS-B
Thu 10:58:51 PM -33.9990 150.9810 242° Southwest 302 348 4,900 343 Climbing FlightAware ADS-B
Thu 10:59:06 PM -34.0170 150.9670 213° Southwest 314 361 4,900  Level FlightAware ADS-B
Thu 10:59:41 PM -34.0680 150.9500 195° South 317 365 4,900  Level FlightAware ADS-B
Thu 10:59:56 PM -34.0890 150.9440 193° South 315 362 4,900 750 Level FlightAware ADS-B
Thu 11:00:21 PM -34.1270 150.9320 195° South 337 388 5,400 2,233 Climbing FlightAware ADS-B
Thu 11:00:39 PM -34.1565 150.9229 195° South 337 388 6,500 3,800 Climbing Aus ATC (RADAR)
Thu 11:00:51 PM -34.1710 150.9180 195° South 335 386 7,300 4,875 Climbing FlightAware ADS-B
Thu 11:01:11 PM -34.2020 150.9080 195° South 317 365 9,100 4,095 Climbing FlightAware ADS-B
Thu 11:01:54 PM -34.2647 150.8881 195° South 317 365 11,600 3,240 Climbing Aus ATC (RADAR)
Thu 11:02:01 PM -34.2730 150.8850 195° South 318 366 11,800 2,170 Climbing FlightAware ADS-B
Thu 11:02:41 PM -34.3330 150.8650 195° South 336 387 13,300 2,047 Climbing FlightAware ADS-B
Thu 11:03:26 PM -34.4020 150.8420 195° South 369 425 14,700 2,188 Climbing FlightAware ADS-B
Thu 11:04:06 PM -34.4740 150.8190 195° South 380 437 16,400 2,222 Climbing FlightAware ADS-B
Thu 11:04:47 PM -34.5430 150.7930 197° South 388 447 17,700 2,000 Climbing FlightAware ADS-B
Thu 11:05:03 PM -34.5660 150.7740 214° Southwest 380 437 18,300 2,625 Climbing FlightAware ADS-B
Thu 11:05:19 PM -34.5850 150.7470 229° Southwest 373 429 19,100 2,609 Climbing FlightAware ADS-B
Thu 11:05:49 PM -34.6152 150.6968 229° Southwest 365 420 20,300 2,286 Climbing Aus ATC (RADAR)
Thu 11:06:01 PM -34.6280 150.6760 229° Southwest 374 430 20,700 2,077 Climbing FlightAware ADS-B
Thu 11:06:41 PM -34.6690 150.6080 234° Southwest 377 434 22,100 2,074 Climbing FlightAware ADS-B
Thu 11:07:22 PM -34.7090 150.5410 234° Southwest 375 432 23,500 2,129 Climbing FlightAware ADS-B
Thu 11:07:43 PM -34.7330 150.5014 234° Southwest 365 420 24,300 1,814 Climbing Aus ATC (RADAR)
Thu 11:08:05 PM -34.7550 150.4650 234° Southwest 377 434 24,800 1,688 Climbing FlightAware ADS-B
Thu 11:08:47 PM -34.7980 150.3930 234° Southwest 377 434 26,100 1,726 Climbing FlightAware ADS-B
Thu 11:09:18 PM -34.8300 150.3392 234° Southwest 370 426 26,900 1,227 Climbing Aus ATC (RADAR)
Thu 11:09:31 PM -34.8420 150.3180 234° Southwest 384 442 27,000 1,000 Climbing FlightAware ADS-B
Thu 11:09:48 PM -34.8610 150.2866 234° Southwest 375 432 27,400 857 Climbing Aus ATC (RADAR)
Thu 11:10:13 PM -34.8870 150.2430 234° Southwest 398 458 27,600 1,855 Climbing FlightAware ADS-B
Thu 11:10:43 PM -34.9202 150.1879 234° Southwest 384 442 29,100 2,400 Climbing Aus ATC (RADAR)
Thu 11:10:53 PM -34.9300 150.1710 234° Southwest 387 445 29,200 1,333 Climbing FlightAware ADS-B
Thu 11:11:28 PM -34.9674 150.1084 234° Southwest 380 437 30,100 1,200 Climbing Aus ATC (RADAR)
Thu 11:11:33 PM -34.9710 150.1010 234° Southwest 391 450 30,000 600 Descending FlightAware ADS-B
Thu 11:12:08 PM -35.0100 150.0357 234° Southwest 391 450 30,500 800 Climbing Aus ATC (RADAR)
Thu 11:12:18 PM -35.0200 150.0190 234° Southwest 400 460 30,600 960 Climbing FlightAware ADS-B
Thu 11:12:58 PM -35.0640 149.9440 234° Southwest 403 464 31,300 1,624 Climbing FlightAware ADS-B
Thu 11:13:43 PM -35.1120 149.8630 234° Southwest 393 452 32,900 1,976 Climbing FlightAware ADS-B
Thu 11:14:23 PM -35.1540 149.7920 234° Southwest 373 429 34,100 1,350 Climbing FlightAware ADS-B
Thu 11:15:03 PM -35.1950 149.7220 234° Southwest 373 429 34,700 1,622 Climbing FlightAware ADS-B
Thu 11:15:37 PM -35.2304 149.6618 234° Southwest 358 412 36,100 1,733 Climbing Aus ATC (RADAR)
Thu 11:15:48 PM -35.2400 149.6460 234° Southwest 359 413 36,000 200 Descending FlightAware ADS-B
Thu 11:16:07 PM -35.2590 149.6125 234° Southwest 351 404 36,200  Climbing Aus ATC (RADAR)
Thu 11:16:28 PM -35.2770 149.5830 234° Southwest 348 400 36,000 -197 Descending FlightAware ADS-B
Thu 11:17:08 PM -35.3140 149.5190 235° Southwest 352 405 36,000 174 Level FlightAware ADS-B
Thu 11:17:37 PM -35.3447 149.4653 235° Southwest 353 406 36,200  Climbing Aus ATC (RADAR)
Thu 11:17:53 PM -35.3580 149.4420 235° Southwest 363 418 36,000 -200 Descending FlightAware ADS-B
Thu 11:18:37 PM -35.4030 149.3650 234° Southwest 370 426 36,000 162 Level FlightAware ADS-B
Thu 11:19:07 PM -35.4332 149.3129 234° Southwest 365 420 36,200 150 Climbing Aus ATC (RADAR)
Thu 11:19:17 PM -35.4430 149.2960 234° Southwest 367 422 36,100 -240 Descending FlightAware ADS-B
Thu 11:19:57 PM -35.4820 149.2290 234° Southwest 363 418 36,000 -71 Descending FlightAware ADS-B
Thu 11:20:41 PM -35.5250 149.1550 234° Southwest 363 418 36,000  Level FlightAware ADS-B
Thu 11:21:21 PM -35.5620 149.0900 235° Southwest 356 410 36,000  Level FlightAware ADS-B
Thu 11:22:01 PM -35.6000 149.0230 235° Southwest 365 420 36,000 182 Level FlightAware ADS-B
Thu 11:22:27 PM -35.6270 148.9763 235° Southwest 362 417 36,200  Climbing Aus ATC (RADAR)
Thu 11:22:46 PM -35.6450 148.9450 235° Southwest 367 422 36,000  Descending FlightAware ADS-B
Thu 11:23:17 PM -35.6766 148.8900 235° Southwest 368 423 36,200  Climbing Aus ATC (RADAR)
Thu 11:23:31 PM -35.6890 148.8690 235° Southwest 374 430 36,000 -240 Descending FlightAware ADS-B
Thu 11:24:07 PM -35.7210 148.8120 235° Southwest 376 433 36,000 86 Level FlightAware ADS-B
Thu 11:24:41 PM -35.7620 148.7420 234° Southwest 380 437 36,100 81 Climbing FlightAware ADS-B
Thu 11:25:21 PM -35.8020 148.6710 235° Southwest 375 432 36,100 107 Level FlightAware ADS-B
Thu 11:25:37 PM -35.8174 148.6438 235° Southwest 372 428 36,200 171 Climbing Aus ATC (RADAR)
Thu 11:25:56 PM -35.8371 148.6088 235° Southwest 370 426 36,200 -286 Level Aus ATC (RADAR)
Thu 11:25:58 PM -35.8370 148.6110 235° Southwest 371 427 36,100  Descending FlightAware ADS-B
Thu 11:26:26 PM -35.8663 148.5572 235° Southwest 365 420 36,200 -130 Climbing Aus ATC (RADAR)
Thu 11:26:44 PM -35.8820 148.5300 235° Southwest 359 413 36,000 -218 Descending FlightAware ADS-B
Thu 11:27:21 PM -35.9160 148.4710 235° Southwest 354 407 36,000  Level FlightAware ADS-B
Thu 11:27:36 PM -35.9326 148.4389 235° Southwest 355 409 36,000 167 Level Aus ATC (RADAR)
Thu 11:27:57 PM -35.9515 148.4066 234° Southwest 349 402 36,100  Climbing Aus ATC (RADAR)
Thu 11:28:04 PM -35.9560 148.3990 234° Southwest 348 400 36,000  Descending FlightAware ADS-B
Thu 11:28:26 PM -35.9792 148.3570 234° Southwest 348 400 36,100  Climbing Aus ATC (RADAR)
Thu 11:28:53 PM -36.0040 148.3150 234° Southwest 344 396 36,000  Descending FlightAware ADS-B
Thu 11:29:21 PM -36.0299 148.2675 234° Southwest 344 396 36,100  Climbing Aus ATC (RADAR)
Thu 11:29:29 PM -36.0360 148.2580 234° Southwest 346 398 36,000 -200 Descending FlightAware ADS-B
Thu 11:29:51 PM -36.0568 148.2186 234° Southwest 342 394 36,000  Level Aus ATC (RADAR)
Thu 11:30:13 PM -36.0760 148.1860 234° Southwest 342 394 36,000 240 Level FlightAware ADS-B
Thu 11:30:41 PM -36.1014 148.1382 234° Southwest 338 389 36,200  Climbing Aus ATC (RADAR)
Thu 11:30:49 PM -36.1080 148.1280 234° Southwest 343 395 36,000  Descending FlightAware ADS-B
Thu 11:31:31 PM -36.1468 148.0572 234° Southwest 342 394 36,200  Climbing Aus ATC (RADAR)
Thu 11:31:39 PM -36.1530 148.0470 234° Southwest 347 399 36,000 -250 Descending FlightAware ADS-B
Thu 11:32:19 PM -36.1900 147.9820 235° Southwest 348 400 36,000 105 Level FlightAware ADS-B
Thu 11:32:36 PM -36.2069 147.9497 235° Southwest 348 400 36,100 162 Climbing Aus ATC (RADAR)
Thu 11:32:56 PM -36.2250 147.9159 236° Southwest 350 403 36,100 -214 Level Aus ATC (RADAR)
Thu 11:33:04 PM -36.2320 147.9060 236° Southwest 350 403 36,000  Descending FlightAware ADS-B
Thu 11:33:31 PM -36.2575 147.8577 236° Southwest 351 404 36,100  Climbing Aus ATC (RADAR)
Thu 11:33:43 PM -36.2690 147.8400 236° Southwest 352 405 36,000  Descending FlightAware ADS-B
Thu 11:34:29 PM -36.3110 147.7630 236° Southwest 351 404 36,100 154 Climbing FlightAware ADS-B
Thu 11:35:01 PM -36.3413 147.7067 236° Southwest 352 405 36,200 -150 Climbing Aus ATC (RADAR)
Thu 11:35:09 PM -36.3470 147.6980 236° Southwest 349 402 36,000 -250 Descending FlightAware ADS-B
Thu 11:35:49 PM -36.3860 147.6280 235° Southwest 353 406 36,000 158 Level FlightAware ADS-B
Thu 11:36:25 PM -36.4194 147.5650 235° Southwest 350 403 36,200  Climbing Aus ATC (RADAR)
Thu 11:36:29 PM -36.4220 147.5620 235° Southwest 348 400 36,000 -245 Descending FlightAware ADS-B
Thu 11:37:14 PM -36.4640 147.4860 235° Southwest 348 400 36,000 169 Level FlightAware ADS-B
Thu 11:37:40 PM -36.4873 147.4403 235° Southwest 346 398 36,200  Climbing Aus ATC (RADAR)
Thu 11:37:54 PM -36.4990 147.4210 235° Southwest 346 398 36,000 -207 Descending FlightAware ADS-B
Thu 11:38:38 PM -36.5390 147.3480 236° Southwest 350 403 36,000  Level FlightAware ADS-B
Thu 11:39:14 PM -36.5720 147.2880 236° Southwest 352 405 36,000  Level FlightAware ADS-B
Thu 11:40:04 PM -36.6180 147.2040 236° Southwest 353 406 36,000 169 Level FlightAware ADS-B
Thu 11:40:25 PM -36.6376 147.1658 236° Southwest 350 403 36,200  Climbing Aus ATC (RADAR)
Thu 11:40:44 PM -36.6550 147.1360 236° Southwest 353 406 36,000  Descending FlightAware ADS-B
Thu 11:41:20 PM -36.6876 147.0733 236° Southwest 349 402 36,200  Climbing Aus ATC (RADAR)
Thu 11:41:24 PM -36.6910 147.0700 236° Southwest 355 409 36,000  Descending FlightAware ADS-B
Thu 11:41:50 PM -36.7153 147.0224 236° Southwest 354 407 36,200  Climbing Aus ATC (RADAR)
Thu 11:42:08 PM -36.7330 146.9920 236° Southwest 352 405 36,000 -203 Descending FlightAware ADS-B
Thu 11:42:49 PM -36.7690 146.9260 236° Southwest 352 405 36,000 -627 Level FlightAware ADS-B
Thu 11:43:15 PM -36.7933 146.8788 236° Southwest 354 407 35,300 -2,133 Descending Aus ATC (RADAR)
Thu 11:43:34 PM -36.8100 146.8500 236° Southwest 357 411 34,400 -1,920 Descending FlightAware ADS-B
Thu 11:44:05 PM -36.8389 146.7928 236° Southwest 356 410 33,700 -1,800 Descending Aus ATC (RADAR)
Thu 11:44:14 PM -36.8470 146.7810 236° Southwest 341 392 33,200 -1,714 Descending FlightAware ADS-B
Thu 11:44:54 PM -36.8770 146.7110 242° Southwest 348 400 32,300 -1,114 Descending FlightAware ADS-B
Thu 11:45:24 PM -36.9012 146.6535 242° Southwest 351 404 31,900 -1,067 Descending Aus ATC (RADAR)
Thu 11:45:39 PM -36.9110 146.6320 242° Southwest 352 405 31,500 -857 Descending FlightAware ADS-B
Thu 11:45:59 PM -36.9287 146.5905 242° Southwest 354 407 31,400 -1,050 Descending Aus ATC (RADAR)
Thu 11:46:19 PM -36.9420 146.5580 242° Southwest 352 405 30,800 -982 Descending FlightAware ADS-B
Thu 11:46:54 PM -36.9605 146.4852 242° Southwest 351 404 30,500 -923 Descending Aus ATC (RADAR)
Thu 11:46:58 PM -36.9620 146.4810 242° Southwest 354 407 30,200 -900 Descending FlightAware ADS-B
Thu 11:47:34 PM -36.9794 146.4068 242° Southwest 352 405 29,900 -913 Descending Aus ATC (RADAR)
Thu 11:47:44 PM -36.9840 146.3920 242° Southwest 351 404 29,500 -1,320 Descending FlightAware ADS-B
Thu 11:48:24 PM -37.0040 146.3140 252° West 351 404 28,800 -880 Descending FlightAware ADS-B
Thu 11:48:59 PM -37.0217 146.2423 252° West 348 400 28,400 -1,200 Descending Aus ATC (RADAR)
Thu 11:49:09 PM -37.0260 146.2270 252° West 341 392 27,900 -1,560 Descending FlightAware ADS-B
Thu 11:49:49 PM -37.0470 146.1540 250° West 341 392 27,100 -923 Descending FlightAware ADS-B
Thu 11:50:14 PM -37.0679 146.1073 250° West 343 395 26,900 -1,050 Descending Aus ATC (RADAR)
Thu 11:50:29 PM -37.0800 146.0840 250° West 340 391 26,400 -800 Descending FlightAware ADS-B
Thu 11:50:44 PM -37.0929 146.0571 250° West 340 391 26,500 -933 Climbing Aus ATC (RADAR)
Thu 11:51:14 PM -37.1160 146.0100 250° West 333 383 25,700 -960 Descending FlightAware ADS-B
Thu 11:51:34 PM -37.1333 145.9737 250° West 336 387 25,700 -769 Level Aus ATC (RADAR)
Thu 11:51:53 PM -37.1470 145.9430 250° West 330 380 25,200 -857 Descending FlightAware ADS-B
Thu 11:52:09 PM -37.1606 145.9155 250° West 332 382 25,200 -783 Level Aus ATC (RADAR)
Thu 11:52:39 PM -37.1830 145.8680 250° West 327 376 24,600 -738 Descending FlightAware ADS-B
Thu 11:53:14 PM -37.2114 145.8089 250° West 326 375 24,400 -750 Descending Aus ATC (RADAR)
Thu 11:53:19 PM -37.2140 145.8030 250° West 323 372 24,100 -600 Descending FlightAware ADS-B
Thu 11:53:34 PM -37.2266 145.7761 250° West 326 375 24,200 -667 Climbing Aus ATC (RADAR)
Thu 11:54:04 PM -37.2490 145.7290 250° West 327 376 23,600 -1,014 Descending FlightAware ADS-B
Thu 11:54:45 PM -37.2800 145.6620 240° Southwest 329 379 23,000 -609 Descending FlightAware ADS-B
Thu 11:55:13 PM -37.3041 145.6115 240° Southwest 331 381 22,900 -750 Descending Aus ATC (RADAR)
Thu 11:55:25 PM -37.3120 145.5930 240° Southwest 329 379 22,500 -857 Descending FlightAware ADS-B
Thu 11:55:48 PM -37.3309 145.5533 240° Southwest 329 379 22,400 -923 Descending Aus ATC (RADAR)
Thu 11:55:51 PM -37.3320 145.5510 240° Southwest 325 374 22,100 -1,125 Descending FlightAware ADS-B
Thu 11:56:36 PM -37.3680 145.4750 239° Southwest 326 375 21,500 -659 Descending FlightAware ADS-B
Thu 11:57:13 PM -37.3959 145.4146 239° Southwest 323 372 21,200 -1,050 Descending Aus ATC (RADAR)
Thu 11:57:16 PM -37.3970 145.4120 239° Southwest 323 372 20,800 -2,512 Descending FlightAware ADS-B
Thu 11:57:56 PM -37.4270 145.3480 239° Southwest 317 365 19,400 -1,684 Descending FlightAware ADS-B
Thu 11:58:13 PM -37.4405 145.3184 239° Southwest 319 367 19,200 -1,622 Descending Aus ATC (RADAR)
Thu 11:58:33 PM -37.4560 145.2857 239° Southwest 324 373 18,400 -2,690 Descending Aus ATC (RADAR)
Thu 11:58:42 PM -37.4610 145.2750 239° Southwest 320 368 17,900 -2,200 Descending FlightAware ADS-B
Thu 11:59:03 PM -37.4780 145.2380 239° Southwest 319 367 17,300 -2,400 Descending Aus ATC (RADAR)
Thu 11:59:22 PM -37.4910 145.2110 239° Southwest 311 358 16,300 -2,400 Descending FlightAware ADS-B
Thu 11:59:58 PM -37.5183 145.1512 239° Southwest 314 361 15,100 -2,267 Descending Aus ATC (RADAR)
Fri 12:00:07 AM -37.5240 145.1390 239° Southwest 309 356 14,600 -2,449 Descending FlightAware ADS-B
Fri 12:00:47 AM -37.5530 145.0760 240° Southwest 305 351 13,100 -2,175 Descending FlightAware ADS-B
Fri 12:01:27 AM -37.5820 145.0130 240° Southwest 304 350 11,700 -1,929 Descending FlightAware ADS-B
Fri 12:01:43 AM -37.5936 144.9881 240° Southwest 308 354 11,300 -2,400 Descending Aus ATC (RADAR)
Fri 12:02:12 AM -37.6140 144.9450 240° Southwest 305 351 9,900 -2,800 Descending FlightAware ADS-B
Fri 12:02:43 AM -37.6360 144.8970 240° Southwest 311 358 8,500 -2,348 Descending FlightAware ADS-B
Fri 12:02:58 AM -37.6473 144.8708 240° Southwest 312 359 8,100 -2,160 Descending Aus ATC (RADAR)
Fri 12:03:08 AM -37.6540 144.8570 240° Southwest 309 356 7,600 -2,250 Descending FlightAware ADS-B
Fri 12:03:38 AM -37.6780 144.8140 235° Southwest 304 350 6,600 -1,102 Descending FlightAware ADS-B
Fri 12:03:57 AM -37.6964 144.7849 235° Southwest 298 343 6,700 -480 Climbing Aus ATC (RADAR)
Fri 12:04:03 AM -37.6990 144.7800 235° Southwest 281 323 6,400 -600 Descending FlightAware ADS-B
Fri 12:04:27 AM -37.7195 144.7478 235° Southwest 274 315 6,400 -720 Level Aus ATC (RADAR)
Fri 12:04:28 AM -37.7190 144.7480 235° Southwest 262 302 6,100 -1,429 Descending FlightAware ADS-B
Fri 12:04:48 AM -37.7340 144.7250 230° Southwest 249 287 5,900 -933 Descending FlightAware ADS-B
Fri 12:05:13 AM -37.7510 144.6970 232° Southwest 240 276 5,400 -1,371 Descending FlightAware ADS-B
Fri 12:05:23 AM -37.7580 144.6860 231° Southwest 241 277 5,100 -1,500 Descending FlightAware ADS-B
Fri 12:05:53 AM -37.7770 144.6550 232° Southwest 240 276 4,400 -1,222 Descending FlightAware ADS-B
Fri 12:06:17 AM -37.7962 144.6243 232° Southwest 244 281 4,000 -1,400 Descending Aus ATC (RADAR)
Fri 12:06:23 AM -37.8000 144.6190 232° Southwest 237 273 3,700 -1,143 Descending FlightAware ADS-B
Fri 12:06:38 AM -37.8090 144.6040 233° Southwest 227 261 3,600 -533 Descending FlightAware ADS-B
Fri 12:07:08 AM -37.8280 144.5740 231° Southwest 213 245 3,300 -536 Descending FlightAware ADS-B
Fri 12:07:34 AM -37.8420 144.5490 235° Southwest 198 228 3,100 -450 Descending FlightAware ADS-B
Fri 12:07:48 AM -37.8490 144.5380 231° Southwest 191 220 3,000 -409 Descending FlightAware ADS-B
Fri 12:08:18 AM -37.8660 144.5110 231° Southwest 183 211 2,800 -300 Descending FlightAware ADS-B
Fri 12:08:28 AM -37.8700 144.5050 230° Southwest 183 211 2,800 -240 Level FlightAware ADS-B
Fri 12:08:43 AM -37.8820 144.4940 216° Southwest 187 215 2,700 -750 Descending FlightAware ADS-B
Fri 12:09:08 AM -37.9030 144.4910 186° South 181 208 2,300 -1,034 Descending FlightAware ADS-B
Fri 12:09:41 AM -37.9290 144.4860 189° South 171 197 1,700 -952 Descending FlightAware ADS-B
Fri 12:10:11 AM -37.9510 144.4820 188° South 148 170 1,300 -750 Descending FlightAware ADS-B
Fri 12:10:21 AM -37.9590 144.4810 186° South 138 159 1,200 -750 Descending FlightAware ADS-B
Fri 12:10:51 AM -37.9760 144.4780 188° South 125 144 800 -750 Descending FlightAware ADS-B
Fri 12:11:01 AM -37.9800 144.4770 191° South 124 143 700 -194 Descending FlightAware ADS-B
Fri 12:11:22 AM -37.9945 144.4754 191° South 127 146 700 -486 Level Aus ATC (RADAR)
Fri 12:11:38 AM -38.0000 144.4740 191° South 132 152 400 -1,125 Descending FlightAware ADS-B
Fri 12:12:07 AM -38.0210 144.4710 186° South 118 136 -828 Descending FlightAware ADS-B
Fri 12:12:37 AM -38.0370 144.4680 188° South 90 104  Level FlightAware ADS-B
Fri 12:12:52 AM -38.0410 144.4670 191° South 53 61  Level FlightAware ADS-B
Fri 12:13:27 AM -38.0460 144.4660 189° South 13 15  Level FlightAware ADS-B
Fri 12:14:02 AM -38.0460 144.4680 90° East 14 16  Level FlightAware ADS-B
Fri 12:14:32 AM -38.0430 144.4690 15° North 21 24  Level FlightAware ADS-B
Fri 12:14:42 AM -38.0420 144.4690 360° North 23 26  Level FlightAware ADS-B

Login

Don't have an account? Register now (free) for customized features, flight alerts, and more!